Princeton Airport

CYDC · 不列颠哥伦比亚, 加拿大

使用的METAR站距离机场36 NM。
罗盘
风向 的 Princeton Airport 3/21
风: 2 kt, 1 beaufort

1 kt

2 kt
改变
0 ft 5.000 10.000 15.000 20.000
Cloud Cloud Cloud Cloud
SCT 8.500
Cloud Cloud Cloud Cloud Cloud Cloud
BKN 16.000
METAR CYYF 181100Z VRB02KT 15SM SCT085 BKN160 07/07 A2995 RMK AC3AC3 SLP152

METAR Princeton Airport - CYDC

Princeton Airport是,加拿大中的中型机场。 该机场位于纬度49,46787和经度-120,51250。 该机场有一条跑道: 3/21. 本场的ICAO机场代码为CYDC。 机场在Vancouver FIR中。

该航空气象观测是针对Penticton Airport在2024年6月18日 04:00, 当地时间进行的。

机场观察

可变方向的风很小或没有风。

可见度为15 mi。

有疏云,零星散落的云朵在8.500 ft的高度 和 碎云在16.000 ft的高度。 破损或更高的上限为16.000 ft。

温度为7 °C,阵风为6 °C。 露点为7 °C,相对湿度为100%。 海平面上的气压为29,95 inHg (QNH)。

白天

今天,太阳从04:55升起,在21:11降落。 这适用于Princeton Airport,世界夏令时可能有所不同。 当地时间与世界标准时间之间的时差为-7 小时。 夏令时目前正在进行中。

公司介绍

我们没有关于这个机场的公司信息。

体会

到Vliegles.nl去找飞行课程,跳伞和其他飞行体验。 浏览页面,了解Princeton Airport附近所有可用的活动。 你也可以使用搜索功能来寻找你所在地附近的特定飞行课程、跳伞或其他飞行体验。

跑道

Id 标题 侧风 逆风 侧风 %
3/21 053°-233° 2 kt 1 kt 80 %

逆风成分最大的方向会被突出显示,并用于横风计算。 这并不一定意味着这个方向在使用。

乌云

8.500 ft SCT 疏云,零星散落的云朵
16.000 ft BKN 碎云

温度 & 天气

温度 7 °C
露点 7 °C
相对湿度 100%
风寒 6 °C
Kp-index 2 (0-9)

评论

SLP152海平面压力为29,98 inHg (29,98 inHg)
AC3AC3

白天

日出
04:51
中午
12:59
日落
21:08 (16:07)

小工具

你想在你的网站上有一个关于Princeton Airport的当前航空天气(METAR)的小部件吗?

显示HTML代码
报告变更